createdAt,value
2022-10-21T00:01:40.748Z,8.25
2022-10-21T00:04:07.421Z,8.98
2022-10-21T00:06:34.049Z,7.88
2022-10-21T00:09:00.705Z,8.93
2022-10-21T00:11:27.335Z,10.65
2022-10-21T00:13:53.883Z,7.93
2022-10-21T00:16:20.513Z,7.45
2022-10-21T00:18:48.576Z,8.18
2022-10-21T00:21:19.087Z,7.10
2022-10-21T00:23:46.565Z,9.15
2022-10-21T00:26:14.581Z,7.97
2022-10-21T00:28:41.558Z,6.20
2022-10-21T00:31:09.971Z,9.45
2022-10-21T00:33:36.816Z,7.15
2022-10-21T00:36:04.647Z,6.70
2022-10-21T00:38:32.441Z,7.45
2022-10-21T00:40:59.267Z,6.78
2022-10-21T00:43:27.157Z,9.68
2022-10-21T00:45:59.703Z,10.48
2022-10-21T00:48:42.437Z,11.45
2022-10-21T00:51:16.830Z,11.85
2022-10-21T00:53:47.602Z,9.43
2022-10-21T00:56:24.466Z,12.07
2022-10-21T00:58:54.128Z,8.82
2022-10-21T01:01:21.810Z,11.88
2022-10-21T01:03:50.282Z,9.98
2022-10-21T01:06:21.049Z,11.30
2022-10-21T01:08:48.105Z,8.50
2022-10-21T01:11:17.700Z,9.88
2022-10-21T01:14:12.241Z,10.00
2022-10-21T01:17:20.610Z,10.95
2022-10-21T01:20:10.251Z,8.25
2022-10-21T01:22:55.394Z,10.73
2022-10-21T01:25:46.811Z,7.38
2022-10-21T01:28:42.665Z,8.18
2022-10-21T01:31:16.093Z,8.43
2022-10-21T01:33:49.388Z,7.28
2022-10-21T01:36:16.102Z,8.68
2022-10-21T01:39:02.968Z,9.88
2022-10-21T01:41:38.148Z,9.80
2022-10-21T01:44:26.096Z,8.77
2022-10-21T01:47:02.443Z,9.63
2022-10-21T01:49:37.951Z,6.55
2022-10-21T01:52:05.259Z,7.55
2022-10-21T01:54:44.722Z,9.00
2022-10-21T01:59:43.814Z,8.52
2022-10-21T02:02:11.733Z,10.55
2022-10-21T02:04:42.554Z,11.68
2022-10-21T02:07:09.509Z,8.35
2022-10-21T02:09:36.240Z,8.15
2022-10-21T02:12:05.684Z,10.85
2022-10-21T02:17:06.259Z,7.25
2022-10-21T02:19:32.866Z,8.95
2022-10-21T02:22:02.413Z,8.00
2022-10-21T02:24:51.468Z,7.57
2022-10-21T02:27:19.370Z,7.35
2022-10-21T02:29:48.272Z,9.07
2022-10-21T02:32:40.486Z,13.27
2022-10-21T02:35:36.743Z,8.15
2022-10-21T02:38:16.174Z,10.60
2022-10-21T02:43:23.451Z,12.43
2022-10-21T02:45:50.144Z,9.18
2022-10-21T02:48:17.027Z,9.85
2022-10-21T02:50:43.717Z,8.60
2022-10-21T02:53:11.277Z,10.20
2022-10-21T02:55:37.857Z,10.00
2022-10-21T02:58:04.761Z,11.68
2022-10-21T03:00:32.902Z,9.55
2022-10-21T03:03:00.313Z,9.57
2022-10-21T03:05:27.158Z,10.45
2022-10-21T03:07:53.739Z,13.02
2022-10-21T03:10:20.279Z,10.55
2022-10-21T03:12:49.760Z,8.27
2022-10-21T03:17:43.176Z,10.55
2022-10-21T03:20:09.915Z,9.13
2022-10-21T03:22:36.516Z,8.68
2022-10-21T03:25:03.216Z,11.43
2022-10-21T03:30:01.279Z,12.13
2022-10-21T03:32:27.891Z,9.63
2022-10-21T03:34:54.543Z,12.80
2022-10-21T03:37:21.263Z,10.27
2022-10-21T03:39:47.854Z,11.23
2022-10-21T03:42:14.451Z,12.25
2022-10-21T03:44:41.418Z,13.43
2022-10-21T03:47:08.544Z,10.85
2022-10-21T03:52:07.744Z,10.27
2022-10-21T03:54:34.369Z,10.32
2022-10-21T03:57:00.942Z,9.60
2022-10-21T03:59:27.631Z,13.30
2022-10-21T04:01:54.348Z,13.00
2022-10-21T04:04:20.989Z,11.73
2022-10-21T04:06:47.601Z,9.30
2022-10-21T04:09:14.241Z,12.85
2022-10-21T04:11:40.932Z,10.48
2022-10-21T04:14:11.454Z,14.10
2022-10-21T04:16:41.350Z,12.55
2022-10-21T04:19:08.271Z,10.85
2022-10-21T04:21:34.833Z,14.77
2022-10-21T04:24:02.096Z,13.55
2022-10-21T04:26:28.696Z,13.30
2022-10-21T04:28:55.417Z,12.48
2022-10-21T04:31:22.031Z,13.75
2022-10-21T04:33:48.755Z,13.35
2022-10-21T04:36:15.352Z,14.65
2022-10-21T04:38:41.990Z,12.20
2022-10-21T04:41:08.549Z,11.02
2022-10-21T04:43:37.908Z,12.55
2022-10-21T04:46:07.521Z,11.82
2022-10-21T04:48:36.630Z,16.10
2022-10-21T04:51:03.206Z,12.05
2022-10-21T04:53:29.880Z,16.10
2022-10-21T04:55:56.453Z,14.98
2022-10-21T04:58:23.180Z,19.73
2022-10-21T05:00:53.070Z,14.10
2022-10-21T05:03:20.367Z,17.80
2022-10-21T05:05:51.397Z,13.52
2022-10-21T05:08:18.916Z,12.80
2022-10-21T05:10:45.494Z,11.48
2022-10-21T05:13:12.262Z,13.88
2022-10-21T05:15:38.796Z,15.48
2022-10-21T05:18:05.388Z,15.05
2022-10-21T05:20:31.943Z,15.30
2022-10-21T05:22:58.495Z,14.55
2022-10-21T05:25:25.064Z,19.90
2022-10-21T05:27:51.653Z,16.02
2022-10-21T05:30:18.392Z,15.93
2022-10-21T05:32:45.010Z,12.13
2022-10-21T05:35:12.211Z,14.55
2022-10-21T05:37:39.038Z,13.52
2022-10-21T05:40:06.682Z,14.82
2022-10-21T05:42:33.330Z,14.35
2022-10-21T05:44:59.971Z,14.75
2022-10-21T05:47:26.629Z,16.95
2022-10-21T05:49:53.244Z,16.38
2022-10-21T05:52:19.851Z,17.50
2022-10-21T05:54:46.486Z,18.55
2022-10-21T05:57:13.078Z,17.45
2022-10-21T05:59:39.674Z,16.08
2022-10-21T06:02:06.315Z,15.88
2022-10-21T06:04:37.797Z,17.35
2022-10-21T06:07:05.664Z,18.83
2022-10-21T06:09:32.566Z,21.05
2022-10-21T06:11:59.383Z,22.25
2022-10-21T06:14:26.949Z,22.77
2022-10-21T06:16:53.534Z,14.43
2022-10-21T06:19:20.177Z,13.15
2022-10-21T06:21:48.476Z,13.98
2022-10-21T06:24:15.902Z,16.13
2022-10-21T06:26:42.596Z,17.13
2022-10-21T06:29:09.179Z,19.30
2022-10-21T06:31:35.728Z,15.60
2022-10-21T06:34:02.389Z,12.45
2022-10-21T06:36:29.625Z,15.15
2022-10-21T06:38:56.422Z,20.73
2022-10-21T06:41:22.981Z,18.00
2022-10-21T06:43:49.677Z,15.90
2022-10-21T06:46:17.089Z,14.82
2022-10-21T06:48:43.735Z,13.80
2022-10-21T06:51:15.100Z,12.15
2022-10-21T06:53:43.190Z,15.85
2022-10-21T06:56:13.096Z,14.13
2022-10-21T06:58:46.351Z,14.20
2022-10-21T07:01:27.980Z,19.67
2022-10-21T07:04:02.069Z,15.00
2022-10-21T07:06:29.079Z,16.00
2022-10-21T07:08:59.434Z,14.05
2022-10-21T07:11:27.422Z,16.20
2022-10-21T07:13:54.559Z,12.23
2022-10-21T07:16:24.771Z,11.77
2022-10-21T07:18:51.614Z,14.30
2022-10-21T07:21:19.999Z,14.93
2022-10-21T07:23:48.997Z,15.60
2022-10-21T07:26:15.818Z,11.00
2022-10-21T07:28:46.980Z,12.93
2022-10-21T07:31:18.692Z,12.50
2022-10-21T07:33:45.524Z,12.15
2022-10-21T07:36:14.139Z,14.80
2022-10-21T07:38:43.896Z,15.50
2022-10-21T07:41:21.709Z,17.02
2022-10-21T07:43:49.017Z,14.68
2022-10-21T07:46:16.342Z,17.90
2022-10-21T07:48:43.186Z,10.63
2022-10-21T07:51:12.708Z,11.45
2022-10-21T07:56:15.296Z,13.13
2022-10-21T07:58:42.975Z,17.60
2022-10-21T08:01:11.527Z,11.05
2022-10-21T08:03:39.156Z,11.03
2022-10-21T08:06:07.325Z,13.05
2022-10-21T08:08:35.773Z,11.13
2022-10-21T08:11:03.787Z,11.45
2022-10-21T08:13:32.023Z,12.13
2022-10-21T08:15:59.260Z,10.20
2022-10-21T08:18:26.565Z,14.32
2022-10-21T08:20:53.893Z,10.88
2022-10-21T08:23:22.541Z,15.57
2022-10-21T08:25:54.641Z,11.43
2022-10-21T08:28:23.594Z,10.88
2022-10-21T08:30:50.288Z,11.98
2022-10-21T08:33:17.583Z,10.90
2022-10-21T08:35:44.722Z,12.95
2022-10-21T08:38:11.946Z,11.27
2022-10-21T08:40:44.435Z,9.70
2022-10-21T08:43:22.408Z,8.90
2022-10-21T08:45:55.885Z,12.32
2022-10-21T08:48:29.884Z,11.65
2022-10-21T08:50:58.313Z,9.77
2022-10-21T08:53:46.503Z,10.68
2022-10-21T08:56:19.627Z,11.48
2022-10-21T08:58:51.924Z,9.85
2022-10-21T09:01:29.212Z,12.68
2022-10-21T09:04:02.765Z,12.25
2022-10-21T09:06:48.583Z,10.00
2022-10-21T09:09:24.977Z,11.85
2022-10-21T09:12:06.432Z,12.95
2022-10-21T09:14:51.704Z,9.45
2022-10-21T09:17:46.367Z,10.15
2022-10-21T09:20:21.650Z,12.27
2022-10-21T09:22:54.000Z,14.02
2022-10-21T09:25:38.030Z,18.13
2022-10-21T09:28:12.300Z,10.75
2022-10-21T09:30:41.189Z,14.57
2022-10-21T09:33:23.295Z,9.88
2022-10-21T09:35:59.749Z,8.90
2022-10-21T09:38:35.788Z,10.63
2022-10-21T09:41:05.782Z,9.30
2022-10-21T09:43:32.552Z,8.10
2022-10-21T09:45:59.413Z,16.90
2022-10-21T09:48:36.989Z,14.75
2022-10-21T09:51:16.286Z,12.30
2022-10-21T09:53:54.482Z,12.32
2022-10-21T09:56:30.975Z,9.45
2022-10-21T09:59:08.220Z,8.65
2022-10-21T10:01:37.758Z,14.98
2022-10-21T10:04:22.353Z,10.60
2022-10-21T10:06:49.808Z,8.77
2022-10-21T10:09:29.527Z,11.57
2022-10-21T10:12:01.440Z,14.75
2022-10-21T10:14:40.376Z,9.10
2022-10-21T10:17:24.047Z,9.23
2022-10-21T10:20:09.157Z,8.77
2022-10-21T10:22:59.148Z,8.38
2022-10-21T10:25:32.646Z,9.30
2022-10-21T10:28:03.474Z,12.38
2022-10-21T10:30:45.459Z,13.07
2022-10-21T10:33:20.365Z,11.77
2022-10-21T10:35:55.939Z,9.13
2022-10-21T10:38:29.436Z,8.30
2022-10-21T10:41:05.299Z,9.68
2022-10-21T10:43:35.360Z,9.43
2022-10-21T10:46:06.760Z,10.27
2022-10-21T10:48:41.890Z,8.35
2022-10-21T10:51:30.656Z,11.57
2022-10-21T10:54:17.889Z,11.77
2022-10-21T10:56:53.482Z,11.27
2022-10-21T11:00:01.130Z,11.05
2022-10-21T11:02:51.165Z,11.18
2022-10-21T11:05:39.449Z,10.02
2022-10-21T11:08:29.724Z,9.48
2022-10-21T11:11:04.257Z,9.95
2022-10-21T11:13:33.979Z,8.75
2022-10-21T11:16:05.941Z,10.40
2022-10-21T11:18:40.545Z,13.18
2022-10-21T11:21:14.635Z,12.18
2022-10-21T11:24:02.031Z,8.73
2022-10-21T11:26:46.762Z,9.48
2022-10-21T11:29:34.493Z,14.40
2022-10-21T11:32:11.488Z,12.57
2022-10-21T11:35:01.109Z,23.60
2022-10-21T11:37:33.461Z,8.90
2022-10-21T11:40:15.850Z,10.95
2022-10-21T11:42:45.139Z,9.65
2022-10-21T11:45:46.065Z,8.25
2022-10-21T11:48:44.588Z,8.00
2022-10-21T11:51:18.709Z,7.63
2022-10-21T11:54:03.952Z,9.27
2022-10-21T11:57:01.398Z,6.78
2022-10-21T11:59:45.265Z,8.45
2022-10-21T13:23:56.417Z,5.65
2022-10-21T13:26:26.656Z,3.93
2022-10-21T13:28:59.307Z,1.98
2022-10-21T13:31:26.106Z,5.15
2022-10-21T13:33:55.302Z,2.58
2022-10-21T13:39:08.399Z,3.10
2022-10-21T13:41:35.628Z,2.72
2022-10-21T13:44:07.247Z,2.28
2022-10-21T13:46:43.590Z,2.40
2022-10-21T13:49:32.155Z,1.77
2022-10-21T13:51:59.273Z,2.22
2022-10-21T13:54:25.971Z,1.50
2022-10-21T13:56:52.587Z,1.70
2022-10-21T13:59:26.456Z,3.35
2022-10-21T14:01:55.588Z,1.80
2022-10-21T14:04:33.153Z,2.08
2022-10-21T14:07:06.452Z,6.35
2022-10-21T14:09:42.602Z,2.65
2022-10-21T14:12:21.987Z,2.40
2022-10-21T14:17:20.816Z,3.72
2022-10-21T14:19:52.269Z,2.63
2022-10-21T14:22:22.997Z,3.75
2022-10-21T14:24:53.379Z,2.17
2022-10-21T14:27:25.508Z,2.47
2022-10-21T14:29:52.398Z,2.40
2022-10-21T14:32:22.302Z,2.35
2022-10-21T14:35:10.061Z,3.85
2022-10-21T14:37:46.708Z,2.45
2022-10-21T14:40:31.713Z,2.88
2022-10-21T14:43:01.023Z,3.20
2022-10-21T14:45:31.122Z,12.68
2022-10-21T14:48:09.291Z,4.93
2022-10-21T14:50:39.226Z,5.60
2022-10-21T14:53:16.891Z,2.83
2022-10-21T14:55:45.232Z,3.08
2022-10-21T14:58:23.147Z,3.22
2022-10-21T15:01:10.734Z,3.47
2022-10-21T15:03:44.627Z,3.42
2022-10-21T15:06:29.360Z,4.07
2022-10-21T15:08:55.931Z,3.28
2022-10-21T15:11:25.548Z,2.63
2022-10-21T15:14:15.533Z,2.47
2022-10-21T15:16:57.154Z,3.30
2022-10-21T15:19:32.087Z,4.03
2022-10-21T15:22:03.938Z,3.15
2022-10-21T15:24:44.835Z,4.90
2022-10-21T15:27:28.015Z,3.88
2022-10-21T15:29:55.129Z,3.85
2022-10-21T15:32:25.598Z,4.55
2022-10-21T15:34:53.918Z,2.47
2022-10-21T15:37:20.622Z,3.40
2022-10-21T15:39:48.600Z,3.00
2022-10-21T15:42:22.668Z,3.33
2022-10-21T15:44:50.264Z,2.65
2022-10-21T15:47:16.936Z,3.72
2022-10-21T15:49:46.031Z,3.20
2022-10-21T15:52:14.176Z,2.83
2022-10-21T15:54:41.372Z,5.22
2022-10-21T15:57:28.163Z,3.35
2022-10-21T15:59:54.829Z,3.53
2022-10-21T16:02:21.406Z,4.65
2022-10-21T16:04:47.974Z,4.20
2022-10-21T16:07:19.370Z,4.28
2022-10-21T16:09:46.488Z,4.93
2022-10-21T16:12:14.398Z,6.47
2022-10-21T16:14:40.980Z,4.35
2022-10-21T16:17:11.576Z,3.88
2022-10-21T16:19:38.216Z,4.32
2022-10-21T16:22:11.080Z,4.75
2022-10-21T16:24:37.674Z,6.85
